sensor_id;sensor_type;location;lat;lon;timestamp;P1;durP1;ratioP1;P2;durP2;ratioP2
21032;SDS011;10675;47.976;7.824;2022-11-20T00:00:53;1.10;;;1.10;;
21032;SDS011;10675;47.976;7.824;2022-11-20T00:03:19;1.40;;;1.30;;
21032;SDS011;10675;47.976;7.824;2022-11-20T00:05:44;1.83;;;1.53;;
21032;SDS011;10675;47.976;7.824;2022-11-20T00:08:10;1.47;;;1.37;;
21032;SDS011;10675;47.976;7.824;2022-11-20T00:10:36;1.33;;;1.27;;
21032;SDS011;10675;47.976;7.824;2022-11-20T00:13:02;2.00;;;1.40;;
21032;SDS011;10675;47.976;7.824;2022-11-20T00:15:28;1.60;;;1.50;;
21032;SDS011;10675;47.976;7.824;2022-11-20T00:17:53;2.07;;;1.70;;
21032;SDS011;10675;47.976;7.824;2022-11-20T00:20:19;3.60;;;1.73;;
21032;SDS011;10675;47.976;7.824;2022-11-20T00:22:45;1.70;;;1.60;;
21032;SDS011;10675;47.976;7.824;2022-11-20T00:25:10;2.23;;;2.03;;
21032;SDS011;10675;47.976;7.824;2022-11-20T00:27:36;2.70;;;1.63;;
21032;SDS011;10675;47.976;7.824;2022-11-20T00:30:01;2.73;;;1.63;;
21032;SDS011;10675;47.976;7.824;2022-11-20T00:32:28;2.57;;;2.07;;
21032;SDS011;10675;47.976;7.824;2022-11-20T00:34:54;2.60;;;1.83;;
21032;SDS011;10675;47.976;7.824;2022-11-20T00:37:19;3.10;;;2.30;;
21032;SDS011;10675;47.976;7.824;2022-11-20T00:39:45;2.77;;;1.80;;
21032;SDS011;10675;47.976;7.824;2022-11-20T00:42:10;2.83;;;2.30;;
21032;SDS011;10675;47.976;7.824;2022-11-20T00:44:36;2.93;;;2.33;;
21032;SDS011;10675;47.976;7.824;2022-11-20T00:47:01;2.83;;;2.17;;
21032;SDS011;10675;47.976;7.824;2022-11-20T00:49:27;2.87;;;2.00;;
21032;SDS011;10675;47.976;7.824;2022-11-20T00:51:52;2.70;;;1.73;;
21032;SDS011;10675;47.976;7.824;2022-11-20T00:54:18;1.97;;;1.70;;
21032;SDS011;10675;47.976;7.824;2022-11-20T00:56:43;2.23;;;2.00;;
21032;SDS011;10675;47.976;7.824;2022-11-20T00:59:09;2.10;;;2.00;;
21032;SDS011;10675;47.976;7.824;2022-11-20T01:01:36;3.17;;;1.80;;
21032;SDS011;10675;47.976;7.824;2022-11-20T01:04:02;2.33;;;2.00;;
21032;SDS011;10675;47.976;7.824;2022-11-20T01:09:04;1.93;;;1.70;;
21032;SDS011;10675;47.976;7.824;2022-11-20T01:11:40;1.73;;;1.53;;
21032;SDS011;10675;47.976;7.824;2022-11-20T01:14:09;1.60;;;1.43;;
21032;SDS011;10675;47.976;7.824;2022-11-20T01:16:42;2.07;;;1.67;;
21032;SDS011;10675;47.976;7.824;2022-11-20T01:19:11;1.60;;;1.50;;
21032;SDS011;10675;47.976;7.824;2022-11-20T01:21:39;2.47;;;1.43;;
21032;SDS011;10675;47.976;7.824;2022-11-20T01:24:07;2.07;;;1.87;;
21032;SDS011;10675;47.976;7.824;2022-11-20T01:26:37;1.60;;;1.50;;
21032;SDS011;10675;47.976;7.824;2022-11-20T01:29:04;2.50;;;1.90;;
21032;SDS011;10675;47.976;7.824;2022-11-20T01:31:34;3.50;;;1.90;;
21032;SDS011;10675;47.976;7.824;2022-11-20T01:34:05;2.47;;;1.47;;
21032;SDS011;10675;47.976;7.824;2022-11-20T01:36:34;2.00;;;1.63;;
21032;SDS011;10675;47.976;7.824;2022-11-20T01:39:02;2.43;;;2.20;;
21032;SDS011;10675;47.976;7.824;2022-11-20T01:41:31;1.70;;;1.50;;
21032;SDS011;10675;47.976;7.824;2022-11-20T01:44:17;3.67;;;1.57;;
21032;SDS011;10675;47.976;7.824;2022-11-20T01:46:57;4.23;;;1.60;;
21032;SDS011;10675;47.976;7.824;2022-11-20T01:49:33;1.53;;;1.43;;
21032;SDS011;10675;47.976;7.824;2022-11-20T01:52:46;2.07;;;1.90;;
21032;SDS011;10675;47.976;7.824;2022-11-20T01:57:26;4.57;;;1.97;;
21032;SDS011;10675;47.976;7.824;2022-11-20T01:59:57;2.17;;;1.60;;
21032;SDS011;10675;47.976;7.824;2022-11-20T02:02:27;1.60;;;1.50;;
21032;SDS011;10675;47.976;7.824;2022-11-20T02:04:54;1.97;;;1.50;;
21032;SDS011;10675;47.976;7.824;2022-11-20T02:07:25;2.60;;;1.70;;
21032;SDS011;10675;47.976;7.824;2022-11-20T02:09:52;2.27;;;1.20;;
21032;SDS011;10675;47.976;7.824;2022-11-20T02:12:18;2.70;;;1.40;;
21032;SDS011;10675;47.976;7.824;2022-11-20T02:15:02;1.20;;;1.10;;
21032;SDS011;10675;47.976;7.824;2022-11-20T02:17:28;1.83;;;1.73;;
21032;SDS011;10675;47.976;7.824;2022-11-20T02:19:54;3.13;;;1.60;;
21032;SDS011;10675;47.976;7.824;2022-11-20T02:22:31;3.07;;;1.70;;
21032;SDS011;10675;47.976;7.824;2022-11-20T02:25:02;3.27;;;1.50;;
21032;SDS011;10675;47.976;7.824;2022-11-20T02:27:28;1.43;;;1.33;;
21032;SDS011;10675;47.976;7.824;2022-11-20T02:29:58;2.33;;;1.30;;
21032;SDS011;10675;47.976;7.824;2022-11-20T02:32:34;2.67;;;1.50;;
21032;SDS011;10675;47.976;7.824;2022-11-20T02:36:01;3.07;;;1.60;;
21032;SDS011;10675;47.976;7.824;2022-11-20T02:37:57;1.20;;;1.10;;
21032;SDS011;10675;47.976;7.824;2022-11-20T02:40:25;3.10;;;1.40;;
21032;SDS011;10675;47.976;7.824;2022-11-20T02:42:54;2.40;;;1.30;;
21032;SDS011;10675;47.976;7.824;2022-11-20T02:45:21;1.57;;;1.20;;
21032;SDS011;10675;47.976;7.824;2022-11-20T02:47:47;1.60;;;1.40;;
21032;SDS011;10675;47.976;7.824;2022-11-20T02:50:13;2.80;;;1.57;;
21032;SDS011;10675;47.976;7.824;2022-11-20T02:52:39;2.77;;;1.23;;
21032;SDS011;10675;47.976;7.824;2022-11-20T02:55:04;0.97;;;0.97;;
21032;SDS011;10675;47.976;7.824;2022-11-20T02:57:30;2.20;;;1.10;;
21032;SDS011;10675;47.976;7.824;2022-11-20T02:59:56;2.03;;;1.40;;
21032;SDS011;10675;47.976;7.824;2022-11-20T03:02:21;2.47;;;1.47;;
21032;SDS011;10675;47.976;7.824;2022-11-20T03:04:47;1.10;;;1.00;;
21032;SDS011;10675;47.976;7.824;2022-11-20T03:07:13;1.73;;;1.23;;
21032;SDS011;10675;47.976;7.824;2022-11-20T03:09:38;1.20;;;1.10;;
21032;SDS011;10675;47.976;7.824;2022-11-20T03:12:04;1.00;;;1.00;;
21032;SDS011;10675;47.976;7.824;2022-11-20T03:14:30;1.40;;;1.30;;
21032;SDS011;10675;47.976;7.824;2022-11-20T03:16:55;1.30;;;1.20;;
21032;SDS011;10675;47.976;7.824;2022-11-20T03:19:21;1.60;;;1.50;;
21032;SDS011;10675;47.976;7.824;2022-11-20T03:21:46;1.67;;;1.57;;
21032;SDS011;10675;47.976;7.824;2022-11-20T03:24:12;1.50;;;1.33;;
21032;SDS011;10675;47.976;7.824;2022-11-20T03:26:38;2.47;;;1.93;;
21032;SDS011;10675;47.976;7.824;2022-11-20T03:29:04;1.70;;;1.60;;
21032;SDS011;10675;47.976;7.824;2022-11-20T03:31:32;3.50;;;1.80;;
21032;SDS011;10675;47.976;7.824;2022-11-20T03:33:59;1.30;;;1.20;;
21032;SDS011;10675;47.976;7.824;2022-11-20T03:36:26;2.03;;;1.60;;
21032;SDS011;10675;47.976;7.824;2022-11-20T03:38:52;1.40;;;1.30;;
21032;SDS011;10675;47.976;7.824;2022-11-20T03:41:25;1.90;;;1.50;;
21032;SDS011;10675;47.976;7.824;2022-11-20T03:43:53;1.77;;;1.67;;
21032;SDS011;10675;47.976;7.824;2022-11-20T03:46:21;5.60;;;1.70;;
21032;SDS011;10675;47.976;7.824;2022-11-20T03:48:47;1.70;;;1.60;;
21032;SDS011;10675;47.976;7.824;2022-11-20T03:51:17;3.23;;;1.47;;
21032;SDS011;10675;47.976;7.824;2022-11-20T03:53:45;1.83;;;1.60;;
21032;SDS011;10675;47.976;7.824;2022-11-20T03:56:13;2.93;;;1.63;;
21032;SDS011;10675;47.976;7.824;2022-11-20T03:58:41;1.67;;;1.33;;
21032;SDS011;10675;47.976;7.824;2022-11-20T04:03:35;1.60;;;1.50;;
21032;SDS011;10675;47.976;7.824;2022-11-20T04:06:02;1.60;;;1.50;;
21032;SDS011;10675;47.976;7.824;2022-11-20T04:08:31;1.30;;;1.20;;
21032;SDS011;10675;47.976;7.824;2022-11-20T04:10:59;2.10;;;1.30;;
21032;SDS011;10675;47.976;7.824;2022-11-20T04:13:39;4.00;;;1.27;;
21032;SDS011;10675;47.976;7.824;2022-11-20T04:16:06;1.30;;;1.20;;
21032;SDS011;10675;47.976;7.824;2022-11-20T04:18:33;2.00;;;1.30;;
21032;SDS011;10675;47.976;7.824;2022-11-20T04:20:59;1.53;;;1.17;;
21032;SDS011;10675;47.976;7.824;2022-11-20T04:23:26;0.90;;;0.90;;
21032;SDS011;10675;47.976;7.824;2022-11-20T04:25:52;1.30;;;1.20;;
21032;SDS011;10675;47.976;7.824;2022-11-20T04:28:18;0.80;;;0.80;;
21032;SDS011;10675;47.976;7.824;2022-11-20T04:30:44;1.13;;;1.00;;
21032;SDS011;10675;47.976;7.824;2022-11-20T04:33:10;1.03;;;0.73;;
21032;SDS011;10675;47.976;7.824;2022-11-20T04:35:36;0.90;;;0.90;;
21032;SDS011;10675;47.976;7.824;2022-11-20T04:38:02;1.43;;;1.00;;
21032;SDS011;10675;47.976;7.824;2022-11-20T04:40:28;0.97;;;0.90;;
21032;SDS011;10675;47.976;7.824;2022-11-20T04:42:55;2.67;;;1.10;;
21032;SDS011;10675;47.976;7.824;2022-11-20T04:45:21;0.83;;;0.83;;
21032;SDS011;10675;47.976;7.824;2022-11-20T04:47:47;0.83;;;0.83;;
21032;SDS011;10675;47.976;7.824;2022-11-20T04:50:13;0.70;;;0.70;;
21032;SDS011;10675;47.976;7.824;2022-11-20T04:52:39;0.73;;;0.73;;
21032;SDS011;10675;47.976;7.824;2022-11-20T04:55:04;3.70;;;1.27;;
21032;SDS011;10675;47.976;7.824;2022-11-20T04:57:30;1.00;;;1.00;;
21032;SDS011;10675;47.976;7.824;2022-11-20T04:59:56;0.90;;;0.90;;
21032;SDS011;10675;47.976;7.824;2022-11-20T05:02:22;1.20;;;1.10;;
21032;SDS011;10675;47.976;7.824;2022-11-20T05:04:48;1.63;;;1.20;;
21032;SDS011;10675;47.976;7.824;2022-11-20T05:07:14;1.10;;;1.00;;
21032;SDS011;10675;47.976;7.824;2022-11-20T05:09:39;1.07;;;0.90;;
21032;SDS011;10675;47.976;7.824;2022-11-20T05:12:06;1.23;;;1.13;;
21032;SDS011;10675;47.976;7.824;2022-11-20T05:14:33;1.50;;;1.20;;
21032;SDS011;10675;47.976;7.824;2022-11-20T05:16:59;1.30;;;1.20;;
21032;SDS011;10675;47.976;7.824;2022-11-20T05:19:24;1.50;;;1.40;;
21032;SDS011;10675;47.976;7.824;2022-11-20T05:21:50;1.40;;;1.30;;
21032;SDS011;10675;47.976;7.824;2022-11-20T05:24:15;1.00;;;0.90;;
21032;SDS011;10675;47.976;7.824;2022-11-20T05:26:41;1.30;;;1.00;;
21032;SDS011;10675;47.976;7.824;2022-11-20T05:29:09;1.37;;;1.20;;
21032;SDS011;10675;47.976;7.824;2022-11-20T05:31:36;1.53;;;1.13;;
21032;SDS011;10675;47.976;7.824;2022-11-20T05:34:03;1.37;;;1.20;;
21032;SDS011;10675;47.976;7.824;2022-11-20T05:36:29;1.27;;;1.17;;
21032;SDS011;10675;47.976;7.824;2022-11-20T05:38:55;1.90;;;1.40;;
21032;SDS011;10675;47.976;7.824;2022-11-20T05:41:20;1.27;;;1.17;;
21032;SDS011;10675;47.976;7.824;2022-11-20T05:43:46;1.77;;;1.40;;
21032;SDS011;10675;47.976;7.824;2022-11-20T05:46:13;1.70;;;1.20;;
21032;SDS011;10675;47.976;7.824;2022-11-20T05:48:41;2.83;;;1.20;;
21032;SDS011;10675;47.976;7.824;2022-11-20T05:51:10;1.57;;;1.27;;
21032;SDS011;10675;47.976;7.824;2022-11-20T05:53:37;1.57;;;1.47;;
21032;SDS011;10675;47.976;7.824;2022-11-20T05:56:04;1.30;;;1.20;;
21032;SDS011;10675;47.976;7.824;2022-11-20T05:58:41;1.07;;;1.00;;
21032;SDS011;10675;47.976;7.824;2022-11-20T06:01:08;1.50;;;1.40;;
21032;SDS011;10675;47.976;7.824;2022-11-20T06:03:39;1.20;;;1.10;;
21032;SDS011;10675;47.976;7.824;2022-11-20T06:06:07;1.30;;;1.20;;
21032;SDS011;10675;47.976;7.824;2022-11-20T06:08:33;1.70;;;1.30;;
21032;SDS011;10675;47.976;7.824;2022-11-20T06:11:02;1.30;;;1.20;;
21032;SDS011;10675;47.976;7.824;2022-11-20T06:13:32;1.40;;;1.30;;
21032;SDS011;10675;47.976;7.824;2022-11-20T06:15:58;1.30;;;1.20;;
21032;SDS011;10675;47.976;7.824;2022-11-20T06:18:25;2.03;;;0.80;;
21032;SDS011;10675;47.976;7.824;2022-11-20T06:20:58;1.17;;;1.10;;
21032;SDS011;10675;47.976;7.824;2022-11-20T06:23:32;1.17;;;1.10;;
21032;SDS011;10675;47.976;7.824;2022-11-20T06:26:05;1.20;;;1.10;;
21032;SDS011;10675;47.976;7.824;2022-11-20T06:28:35;1.13;;;1.00;;
21032;SDS011;10675;47.976;7.824;2022-11-20T06:31:01;1.30;;;1.20;;
21032;SDS011;10675;47.976;7.824;2022-11-20T06:33:27;1.50;;;1.13;;
21032;SDS011;10675;47.976;7.824;2022-11-20T06:35:55;1.47;;;1.30;;
21032;SDS011;10675;47.976;7.824;2022-11-20T06:38:22;1.77;;;1.20;;
21032;SDS011;10675;47.976;7.824;2022-11-20T06:40:48;0.90;;;0.90;;
21032;SDS011;10675;47.976;7.824;2022-11-20T06:43:14;2.23;;;1.53;;
21032;SDS011;10675;47.976;7.824;2022-11-20T06:45:40;1.27;;;1.17;;
21032;SDS011;10675;47.976;7.824;2022-11-20T06:48:05;2.77;;;1.20;;
21032;SDS011;10675;47.976;7.824;2022-11-20T06:50:31;1.40;;;1.30;;
21032;SDS011;10675;47.976;7.824;2022-11-20T06:52:59;1.10;;;1.00;;
21032;SDS011;10675;47.976;7.824;2022-11-20T06:55:26;1.10;;;1.00;;
21032;SDS011;10675;47.976;7.824;2022-11-20T06:57:51;1.43;;;1.33;;
21032;SDS011;10675;47.976;7.824;2022-11-20T07:00:17;1.73;;;1.37;;
21032;SDS011;10675;47.976;7.824;2022-11-20T07:02:42;1.77;;;1.40;;
21032;SDS011;10675;47.976;7.824;2022-11-20T07:05:08;1.07;;;1.00;;
21032;SDS011;10675;47.976;7.824;2022-11-20T07:07:33;1.50;;;1.40;;
21032;SDS011;10675;47.976;7.824;2022-11-20T07:09:59;1.57;;;1.47;;
21032;SDS011;10675;47.976;7.824;2022-11-20T07:12:24;1.23;;;1.10;;
21032;SDS011;10675;47.976;7.824;2022-11-20T07:14:50;1.57;;;1.33;;
21032;SDS011;10675;47.976;7.824;2022-11-20T07:17:15;1.37;;;1.23;;
21032;SDS011;10675;47.976;7.824;2022-11-20T07:19:41;1.33;;;1.23;;
21032;SDS011;10675;47.976;7.824;2022-11-20T07:22:07;1.10;;;1.10;;
21032;SDS011;10675;47.976;7.824;2022-11-20T07:24:33;1.33;;;1.20;;
21032;SDS011;10675;47.976;7.824;2022-11-20T07:26:59;1.03;;;1.03;;
21032;SDS011;10675;47.976;7.824;2022-11-20T07:29:25;1.10;;;1.10;;
21032;SDS011;10675;47.976;7.824;2022-11-20T07:31:51;1.40;;;1.30;;
21032;SDS011;10675;47.976;7.824;2022-11-20T07:34:16;0.73;;;0.73;;
21032;SDS011;10675;47.976;7.824;2022-11-20T07:36:42;2.90;;;1.40;;
21032;SDS011;10675;47.976;7.824;2022-11-20T07:39:07;1.43;;;1.10;;
21032;SDS011;10675;47.976;7.824;2022-11-20T07:41:33;1.50;;;1.20;;
21032;SDS011;10675;47.976;7.824;2022-11-20T07:43:58;1.30;;;1.10;;
21032;SDS011;10675;47.976;7.824;2022-11-20T07:46:24;3.40;;;1.40;;
21032;SDS011;10675;47.976;7.824;2022-11-20T07:48:50;1.57;;;1.33;;
21032;SDS011;10675;47.976;7.824;2022-11-20T07:51:15;1.23;;;1.10;;
21032;SDS011;10675;47.976;7.824;2022-11-20T07:53:41;1.50;;;1.07;;
21032;SDS011;10675;47.976;7.824;2022-11-20T07:56:06;1.93;;;1.20;;
21032;SDS011;10675;47.976;7.824;2022-11-20T07:58:32;1.33;;;1.23;;
21032;SDS011;10675;47.976;7.824;2022-11-20T08:01:08;1.53;;;1.43;;
21032;SDS011;10675;47.976;7.824;2022-11-20T08:03:34;1.10;;;0.90;;
21032;SDS011;10675;47.976;7.824;2022-11-20T08:06:02;1.03;;;0.93;;
21032;SDS011;10675;47.976;7.824;2022-11-20T08:08:28;1.70;;;1.60;;
21032;SDS011;10675;47.976;7.824;2022-11-20T08:10:56;3.53;;;1.23;;
21032;SDS011;10675;47.976;7.824;2022-11-20T08:13:42;2.30;;;1.23;;
21032;SDS011;10675;47.976;7.824;2022-11-20T08:16:26;1.50;;;1.33;;
21032;SDS011;10675;47.976;7.824;2022-11-20T08:18:53;1.50;;;1.40;;
21032;SDS011;10675;47.976;7.824;2022-11-20T08:21:18;3.63;;;1.67;;
21032;SDS011;10675;47.976;7.824;2022-11-20T08:23:44;1.50;;;1.40;;
21032;SDS011;10675;47.976;7.824;2022-11-20T08:26:09;1.63;;;1.40;;
21032;SDS011;10675;47.976;7.824;2022-11-20T08:28:35;2.53;;;1.33;;
21032;SDS011;10675;47.976;7.824;2022-11-20T08:31:01;1.20;;;1.10;;
21032;SDS011;10675;47.976;7.824;2022-11-20T08:33:27;1.83;;;1.40;;
21032;SDS011;10675;47.976;7.824;2022-11-20T08:35:53;1.30;;;1.20;;
21032;SDS011;10675;47.976;7.824;2022-11-20T08:38:26;1.10;;;1.00;;
21032;SDS011;10675;47.976;7.824;2022-11-20T08:40:55;1.47;;;1.20;;
21032;SDS011;10675;47.976;7.824;2022-11-20T08:43:41;1.23;;;1.13;;
21032;SDS011;10675;47.976;7.824;2022-11-20T08:46:06;2.77;;;1.27;;
21032;SDS011;10675;47.976;7.824;2022-11-20T08:48:32;1.20;;;1.10;;
21032;SDS011;10675;47.976;7.824;2022-11-20T08:50:58;1.23;;;1.20;;
21032;SDS011;10675;47.976;7.824;2022-11-20T08:53:24;1.20;;;1.07;;
21032;SDS011;10675;47.976;7.824;2022-11-20T08:55:50;1.73;;;1.37;;
21032;SDS011;10675;47.976;7.824;2022-11-20T08:58:15;1.40;;;1.30;;
21032;SDS011;10675;47.976;7.824;2022-11-20T09:00:41;2.10;;;1.07;;
21032;SDS011;10675;47.976;7.824;2022-11-20T09:03:06;1.97;;;1.07;;
21032;SDS011;10675;47.976;7.824;2022-11-20T09:05:32;1.30;;;1.20;;
21032;SDS011;10675;47.976;7.824;2022-11-20T09:07:58;2.20;;;1.30;;
21032;SDS011;10675;47.976;7.824;2022-11-20T09:10:23;3.03;;;1.17;;
21032;SDS011;10675;47.976;7.824;2022-11-20T09:12:50;2.03;;;1.00;;
21032;SDS011;10675;47.976;7.824;2022-11-20T09:15:16;3.87;;;1.23;;
21032;SDS011;10675;47.976;7.824;2022-11-20T09:17:42;1.30;;;1.10;;
21032;SDS011;10675;47.976;7.824;2022-11-20T09:20:15;4.07;;;1.20;;
21032;SDS011;10675;47.976;7.824;2022-11-20T09:22:41;1.60;;;1.30;;
21032;SDS011;10675;47.976;7.824;2022-11-20T09:25:06;1.30;;;1.23;;
21032;SDS011;10675;47.976;7.824;2022-11-20T09:27:32;2.93;;;1.30;;
21032;SDS011;10675;47.976;7.824;2022-11-20T09:29:58;1.43;;;1.33;;
21032;SDS011;10675;47.976;7.824;2022-11-20T09:32:23;1.20;;;1.10;;
21032;SDS011;10675;47.976;7.824;2022-11-20T09:34:49;2.37;;;1.43;;
21032;SDS011;10675;47.976;7.824;2022-11-20T09:37:14;2.57;;;1.40;;
21032;SDS011;10675;47.976;7.824;2022-11-20T09:39:40;1.40;;;1.27;;
21032;SDS011;10675;47.976;7.824;2022-11-20T09:47:31;2.53;;;1.43;;
21032;SDS011;10675;47.976;7.824;2022-11-20T09:50:07;2.97;;;1.33;;
21032;SDS011;10675;47.976;7.824;2022-11-20T09:55:57;1.97;;;1.50;;
21032;SDS011;10675;47.976;7.824;2022-11-20T09:58:28;2.93;;;1.23;;
21032;SDS011;10675;47.976;7.824;2022-11-20T10:01:17;1.20;;;1.10;;
21032;SDS011;10675;47.976;7.824;2022-11-20T10:06:29;1.90;;;1.17;;
21032;SDS011;10675;47.976;7.824;2022-11-20T10:09:06;1.60;;;1.27;;
21032;SDS011;10675;47.976;7.824;2022-11-20T10:14:13;3.47;;;1.60;;
21032;SDS011;10675;47.976;7.824;2022-11-20T10:23:18;2.87;;;1.50;;
21032;SDS011;10675;47.976;7.824;2022-11-20T10:25:59;1.90;;;1.40;;
21032;SDS011;10675;47.976;7.824;2022-11-20T10:31:32;1.50;;;1.40;;
21032;SDS011;10675;47.976;7.824;2022-11-20T10:34:06;1.40;;;1.20;;
21032;SDS011;10675;47.976;7.824;2022-11-20T10:36:56;1.87;;;1.37;;
21032;SDS011;10675;47.976;7.824;2022-11-20T10:42:14;1.80;;;1.70;;
21032;SDS011;10675;47.976;7.824;2022-11-20T10:44:58;3.87;;;1.80;;
21032;SDS011;10675;47.976;7.824;2022-11-20T10:47:36;3.00;;;1.60;;
21032;SDS011;10675;47.976;7.824;2022-11-20T10:50:03;2.57;;;1.63;;
21032;SDS011;10675;47.976;7.824;2022-11-20T10:55:04;2.93;;;1.60;;
21032;SDS011;10675;47.976;7.824;2022-11-20T11:01:02;2.80;;;1.60;;
21032;SDS011;10675;47.976;7.824;2022-11-20T11:03:38;1.50;;;1.40;;
21032;SDS011;10675;47.976;7.824;2022-11-20T11:08:32;2.03;;;1.47;;
21032;SDS011;10675;47.976;7.824;2022-11-20T11:11:03;1.73;;;1.10;;
21032;SDS011;10675;47.976;7.824;2022-11-20T11:13:51;1.63;;;1.13;;
21032;SDS011;10675;47.976;7.824;2022-11-20T11:16:26;1.63;;;1.23;;
21032;SDS011;10675;47.976;7.824;2022-11-20T11:19:02;2.27;;;1.40;;
21032;SDS011;10675;47.976;7.824;2022-11-20T11:21:29;1.60;;;1.50;;
21032;SDS011;10675;47.976;7.824;2022-11-20T11:23:59;4.57;;;1.60;;
21032;SDS011;10675;47.976;7.824;2022-11-20T11:26:26;2.23;;;1.30;;
21032;SDS011;10675;47.976;7.824;2022-11-20T11:28:56;1.57;;;1.43;;
21032;SDS011;10675;47.976;7.824;2022-11-20T11:31:24;2.40;;;1.40;;
21032;SDS011;10675;47.976;7.824;2022-11-20T11:33:51;2.20;;;1.50;;
21032;SDS011;10675;47.976;7.824;2022-11-20T11:36:17;1.70;;;1.50;;
21032;SDS011;10675;47.976;7.824;2022-11-20T11:38:48;1.33;;;1.20;;
21032;SDS011;10675;47.976;7.824;2022-11-20T11:41:19;1.37;;;1.10;;
21032;SDS011;10675;47.976;7.824;2022-11-20T11:43:50;2.93;;;1.73;;
21032;SDS011;10675;47.976;7.824;2022-11-20T11:46:37;1.10;;;1.00;;
21032;SDS011;10675;47.976;7.824;2022-11-20T11:54:24;1.00;;;1.00;;
21032;SDS011;10675;47.976;7.824;2022-11-20T11:56:58;1.53;;;0.97;;
21032;SDS011;10675;47.976;7.824;2022-11-20T11:59:51;1.10;;;1.00;;
21032;SDS011;10675;47.976;7.824;2022-11-20T12:05:40;1.10;;;1.10;;
21032;SDS011;10675;47.976;7.824;2022-11-20T12:08:17;0.80;;;0.80;;
21032;SDS011;10675;47.976;7.824;2022-11-20T12:10:53;1.33;;;0.90;;
21032;SDS011;10675;47.976;7.824;2022-11-20T12:15:59;1.03;;;0.87;;
21032;SDS011;10675;47.976;7.824;2022-11-20T12:18:26;0.80;;;0.80;;
21032;SDS011;10675;47.976;7.824;2022-11-20T12:23:24;1.00;;;1.00;;
21032;SDS011;10675;47.976;7.824;2022-11-20T12:26:19;1.83;;;1.00;;
21032;SDS011;10675;47.976;7.824;2022-11-20T12:31:45;1.83;;;1.20;;
21032;SDS011;10675;47.976;7.824;2022-11-20T12:34:27;1.97;;;1.10;;
21032;SDS011;10675;47.976;7.824;2022-11-20T12:39:47;1.17;;;1.07;;
21032;SDS011;10675;47.976;7.824;2022-11-20T12:42:19;1.50;;;1.30;;
21032;SDS011;10675;47.976;7.824;2022-11-20T12:50:23;0.83;;;0.83;;
21032;SDS011;10675;47.976;7.824;2022-11-20T12:53:30;1.30;;;1.10;;
21032;SDS011;10675;47.976;7.824;2022-11-20T13:06:46;1.33;;;0.90;;
21032;SDS011;10675;47.976;7.824;2022-11-20T13:09:13;1.40;;;1.10;;
21032;SDS011;10675;47.976;7.824;2022-11-20T13:11:42;1.13;;;1.03;;
21032;SDS011;10675;47.976;7.824;2022-11-20T13:19:39;0.93;;;0.90;;
21032;SDS011;10675;47.976;7.824;2022-11-20T13:22:07;0.60;;;0.60;;
21032;SDS011;10675;47.976;7.824;2022-11-20T13:24:33;0.70;;;0.70;;
21032;SDS011;10675;47.976;7.824;2022-11-20T13:27:17;0.70;;;0.70;;
21032;SDS011;10675;47.976;7.824;2022-11-20T13:29:46;0.80;;;0.80;;
21032;SDS011;10675;47.976;7.824;2022-11-20T13:32:24;0.90;;;0.90;;
21032;SDS011;10675;47.976;7.824;2022-11-20T13:35:03;1.27;;;1.17;;
21032;SDS011;10675;47.976;7.824;2022-11-20T13:37:30;1.37;;;0.70;;
21032;SDS011;10675;47.976;7.824;2022-11-20T13:40:32;0.70;;;0.70;;
21032;SDS011;10675;47.976;7.824;2022-11-20T13:42:54;0.83;;;0.83;;
21032;SDS011;10675;47.976;7.824;2022-11-20T13:45:22;0.77;;;0.70;;
21032;SDS011;10675;47.976;7.824;2022-11-20T13:47:53;2.03;;;0.90;;
21032;SDS011;10675;47.976;7.824;2022-11-20T13:50:19;1.40;;;0.80;;
21032;SDS011;10675;47.976;7.824;2022-11-20T13:58:24;0.77;;;0.50;;
21032;SDS011;10675;47.976;7.824;2022-11-20T14:01:08;4.07;;;1.27;;
21032;SDS011;10675;47.976;7.824;2022-11-20T14:03:35;0.67;;;0.67;;
21032;SDS011;10675;47.976;7.824;2022-11-20T14:06:02;3.53;;;1.13;;
21032;SDS011;10675;47.976;7.824;2022-11-20T14:08:35;1.10;;;1.00;;
21032;SDS011;10675;47.976;7.824;2022-11-20T14:16:40;2.73;;;1.20;;
21032;SDS011;10675;47.976;7.824;2022-11-20T14:21:47;2.03;;;0.87;;
21032;SDS011;10675;47.976;7.824;2022-11-20T14:24:14;1.37;;;1.00;;
21032;SDS011;10675;47.976;7.824;2022-11-20T14:26:44;3.03;;;1.17;;
21032;SDS011;10675;47.976;7.824;2022-11-20T14:29:17;1.50;;;1.10;;
21032;SDS011;10675;47.976;7.824;2022-11-20T14:31:45;2.63;;;1.27;;
21032;SDS011;10675;47.976;7.824;2022-11-20T14:34:17;6.77;;;1.50;;
21032;SDS011;10675;47.976;7.824;2022-11-20T14:36:45;1.47;;;1.20;;
21032;SDS011;10675;47.976;7.824;2022-11-20T14:39:11;2.07;;;1.03;;
21032;SDS011;10675;47.976;7.824;2022-11-20T14:41:52;1.50;;;1.00;;
21032;SDS011;10675;47.976;7.824;2022-11-20T14:44:23;1.27;;;1.17;;
21032;SDS011;10675;47.976;7.824;2022-11-20T14:46:59;2.23;;;1.47;;
21032;SDS011;10675;47.976;7.824;2022-11-20T14:49:26;1.40;;;1.10;;
21032;SDS011;10675;47.976;7.824;2022-11-20T14:52:01;2.03;;;1.43;;
21032;SDS011;10675;47.976;7.824;2022-11-20T14:54:48;1.37;;;1.10;;
21032;SDS011;10675;47.976;7.824;2022-11-20T15:00:04;1.60;;;1.37;;
21032;SDS011;10675;47.976;7.824;2022-11-20T15:02:32;1.47;;;1.10;;
21032;SDS011;10675;47.976;7.824;2022-11-20T15:04:59;1.53;;;1.20;;
21032;SDS011;10675;47.976;7.824;2022-11-20T15:07:30;1.00;;;1.00;;
21032;SDS011;10675;47.976;7.824;2022-11-20T15:10:11;0.70;;;0.70;;
21032;SDS011;10675;47.976;7.824;2022-11-20T15:12:50;0.93;;;0.90;;
21032;SDS011;10675;47.976;7.824;2022-11-20T15:15:30;0.80;;;0.80;;
21032;SDS011;10675;47.976;7.824;2022-11-20T15:17:59;3.73;;;0.90;;
21032;SDS011;10675;47.976;7.824;2022-11-20T15:20:26;2.27;;;1.40;;
21032;SDS011;10675;47.976;7.824;2022-11-20T15:22:54;2.00;;;1.20;;
21032;SDS011;10675;47.976;7.824;2022-11-20T15:25:20;2.57;;;1.73;;
21032;SDS011;10675;47.976;7.824;2022-11-20T15:27:54;3.87;;;1.50;;
21032;SDS011;10675;47.976;7.824;2022-11-20T15:30:21;0.90;;;0.90;;
21032;SDS011;10675;47.976;7.824;2022-11-20T15:32:47;0.87;;;0.87;;
21032;SDS011;10675;47.976;7.824;2022-11-20T15:35:13;3.30;;;1.10;;
21032;SDS011;10675;47.976;7.824;2022-11-20T15:37:40;3.00;;;0.90;;
21032;SDS011;10675;47.976;7.824;2022-11-20T15:40:06;3.50;;;1.13;;
21032;SDS011;10675;47.976;7.824;2022-11-20T15:42:33;1.90;;;1.13;;
21032;SDS011;10675;47.976;7.824;2022-11-20T15:44:59;1.53;;;1.43;;
21032;SDS011;10675;47.976;7.824;2022-11-20T15:47:26;1.53;;;1.20;;
21032;SDS011;10675;47.976;7.824;2022-11-20T15:49:59;1.53;;;1.20;;
21032;SDS011;10675;47.976;7.824;2022-11-20T15:52:25;1.77;;;1.10;;
21032;SDS011;10675;47.976;7.824;2022-11-20T15:54:51;1.30;;;1.10;;
21032;SDS011;10675;47.976;7.824;2022-11-20T15:57:16;2.17;;;0.70;;
21032;SDS011;10675;47.976;7.824;2022-11-20T15:59:42;1.50;;;0.70;;
21032;SDS011;10675;47.976;7.824;2022-11-20T16:02:11;2.03;;;1.63;;
21032;SDS011;10675;47.976;7.824;2022-11-20T16:04:38;2.50;;;1.00;;
21032;SDS011;10675;47.976;7.824;2022-11-20T16:07:04;0.70;;;0.70;;
21032;SDS011;10675;47.976;7.824;2022-11-20T16:09:29;1.30;;;1.00;;
21032;SDS011;10675;47.976;7.824;2022-11-20T16:11:55;4.60;;;1.10;;
21032;SDS011;10675;47.976;7.824;2022-11-20T16:14:20;1.50;;;0.60;;
21032;SDS011;10675;47.976;7.824;2022-11-20T16:17:05;0.80;;;0.80;;
21032;SDS011;10675;47.976;7.824;2022-11-20T16:19:31;1.20;;;0.80;;
21032;SDS011;10675;47.976;7.824;2022-11-20T16:21:59;1.10;;;1.00;;
21032;SDS011;10675;47.976;7.824;2022-11-20T16:24:29;2.37;;;0.83;;
21032;SDS011;10675;47.976;7.824;2022-11-20T16:26:54;0.70;;;0.70;;
21032;SDS011;10675;47.976;7.824;2022-11-20T16:29:20;1.27;;;0.70;;
21032;SDS011;10675;47.976;7.824;2022-11-20T16:31:46;1.53;;;0.97;;
21032;SDS011;10675;47.976;7.824;2022-11-20T16:34:12;0.50;;;0.50;;
21032;SDS011;10675;47.976;7.824;2022-11-20T16:36:40;0.60;;;0.60;;
21032;SDS011;10675;47.976;7.824;2022-11-20T16:39:07;0.83;;;0.83;;